Time;durP1;ratioP1;P1;durP2;ratioP2;P2;SDS_P1;SDS_P2;PMS_P1;PMS_P2;Temp;Humidity;BMP_temperature;BMP_pressure;BME280_temperature;BME280_humidity;BME280_pressure;Samples;Min_cycle;Max_cycle;Signal;HPM_P1;HPM_P2
2023/01/28 00:02:06;;;;;;;10.30;5.68;;;;;;;;;;6260968;23;20348;-96
2023/01/28 00:04:34;;;;;;;11.85;5.68;;;;;;;;;;6237062;23;20008;-96
2023/01/28 00:07:00;;;;;;;8.07;4.88;;;;;;;;;;6235641;23;20298;-96
2023/01/28 00:09:28;;;;;;;9.05;4.95;;;;;;;;;;6235086;23;20012;-96
2023/01/28 00:11:57;;;;;;;8.57;5.18;;;;;;;;;;6235434;23;20008;-96
2023/01/28 00:14:24;;;;;;;8.75;5.70;;;;;;;;;;6235448;23;20008;-96
2023/01/28 00:16:52;;;;;;;8.95;5.60;;;;;;;;;;6259991;23;20008;-96
2023/01/28 00:19:21;;;;;;;11.23;5.53;;;;;;;;;;6236296;23;20060;-96
2023/01/28 00:21:49;;;;;;;10.93;5.15;;;;;;;;;;6260354;23;20004;-96
2023/01/28 00:24:19;;;;;;;9.15;5.28;;;;;;;;;;6253010;23;20004;-96
2023/01/28 00:26:48;;;;;;;9.32;5.82;;;;;;;;;;6236106;23;20032;-96
2023/01/28 00:29:14;;;;;;;10.88;5.90;;;;;;;;;;6258999;23;20015;-96
2023/01/28 00:31:44;;;;;;;12.52;4.97;;;;;;;;;;6225043;23;20008;-96
2023/01/28 00:34:10;;;;;;;6.57;4.25;;;;;;;;;;6225954;23;20324;-96
2023/01/28 00:36:38;;;;;;;7.95;4.78;;;;;;;;;;6224472;23;20030;-96
2023/01/28 00:39:04;;;;;;;12.50;6.05;;;;;;;;;;6224210;23;20151;-96
2023/01/28 00:41:33;;;;;;;10.73;5.53;;;;;;;;;;6253487;23;20059;-96
2023/01/28 00:43:59;;;;;;;11.38;6.13;;;;;;;;;;6228719;22;20024;-96
2023/01/28 00:46:26;;;;;;;15.38;6.53;;;;;;;;;;6225074;23;20039;-96
2023/01/28 00:48:52;;;;;;;16.52;6.30;;;;;;;;;;6225192;23;20008;-96
2023/01/28 00:51:19;;;;;;;13.10;6.05;;;;;;;;;;6224682;23;20106;-96
2023/01/28 00:53:46;;;;;;;9.73;5.53;;;;;;;;;;6248798;23;20004;-96
2023/01/28 00:56:13;;;;;;;10.68;5.43;;;;;;;;;;6223803;23;20032;-96
2023/01/28 00:58:40;;;;;;;9.70;4.93;;;;;;;;;;6250811;23;20011;-96
2023/01/28 01:01:08;;;;;;;10.30;5.60;;;;;;;;;;6232563;23;20035;-96
2023/01/28 01:03:37;;;;;;;17.95;5.70;;;;;;;;;;6228263;23;20091;-96
2023/01/28 01:06:03;;;;;;;8.07;4.32;;;;;;;;;;6249571;23;20008;-96
2023/01/28 01:08:33;;;;;;;10.15;3.60;;;;;;;;;;6225185;23;20004;-96
2023/01/28 01:11:00;;;;;;;7.30;3.88;;;;;;;;;;6227491;23;20495;-96
2023/01/28 01:13:26;;;;;;;6.65;3.63;;;;;;;;;;6223986;23;20341;-96
2023/01/28 01:16:07;;;;;;;9.35;4.85;;;;;;;;;;6224958;23;20088;-96
2023/01/28 01:18:33;;;;;;;6.07;3.85;;;;;;;;;;6250150;23;20004;-96
2023/01/28 01:21:00;;;;;;;6.95;3.63;;;;;;;;;;6249766;23;20008;-96
2023/01/28 01:23:26;;;;;;;6.13;3.20;;;;;;;;;;6225260;23;20008;-96
2023/01/28 01:25:55;;;;;;;8.52;4.25;;;;;;;;;;6225034;23;20045;-96
2023/01/28 01:28:21;;;;;;;6.78;4.13;;;;;;;;;;6250154;23;20004;-96
2023/01/28 01:30:48;;;;;;;8.73;3.50;;;;;;;;;;6225648;23;20008;-96
2023/01/28 01:33:14;;;;;;;8.00;4.80;;;;;;;;;;6226101;23;20008;-95
2023/01/28 01:35:40;;;;;;;4.82;2.92;;;;;;;;;;6226270;23;20012;-96
2023/01/28 01:38:07;;;;;;;5.82;3.53;;;;;;;;;;6251490;23;20005;-96
2023/01/28 01:40:33;;;;;;;7.47;4.30;;;;;;;;;;6256243;23;20444;-96
2023/01/28 01:42:59;;;;;;;4.38;3.33;;;;;;;;;;6227361;22;20344;-96
2023/01/28 01:45:29;;;;;;;5.28;3.33;;;;;;;;;;6254053;23;20435;-96
2023/01/28 01:48:02;;;;;;;5.95;3.00;;;;;;;;;;6253257;23;20039;-96
2023/01/28 01:50:30;;;;;;;6.50;3.35;;;;;;;;;;6255919;23;20015;-96
2023/01/28 01:52:59;;;;;;;6.00;2.67;;;;;;;;;;6236580;23;20004;-96
2023/01/28 01:55:27;;;;;;;4.35;2.75;;;;;;;;;;6244236;22;19988;-96
2023/01/28 01:57:54;;;;;;;5.55;2.92;;;;;;;;;;6274087;22;20027;-96
2023/01/28 02:00:21;;;;;;;4.60;2.78;;;;;;;;;;6273191;22;19999;-96
2023/01/28 02:02:49;;;;;;;5.13;2.67;;;;;;;;;;6273641;22;20008;-96
2023/01/28 02:05:17;;;;;;;6.57;2.80;;;;;;;;;;6266164;23;20005;-96
2023/01/28 02:07:43;;;;;;;3.95;2.60;;;;;;;;;;6261746;23;20058;-96
2023/01/28 02:10:11;;;;;;;3.65;2.60;;;;;;;;;;6226681;23;20019;-96
2023/01/28 02:12:38;;;;;;;5.28;2.95;;;;;;;;;;6225064;23;20008;-96
2023/01/28 02:15:06;;;;;;;3.90;2.60;;;;;;;;;;6224568;23;20007;-96
2023/01/28 02:17:33;;;;;;;5.40;2.80;;;;;;;;;;6225022;23;20008;-96
2023/01/28 02:20:00;;;;;;;5.50;2.85;;;;;;;;;;6249212;23;20015;-96
2023/01/28 02:22:39;;;;;;;4.20;2.70;;;;;;;;;;6224346;23;20010;-96
2023/01/28 02:25:11;;;;;;;5.22;2.50;;;;;;;;;;6250275;23;20031;-96
2023/01/28 02:27:49;;;;;;;4.07;2.63;;;;;;;;;;6249423;23;20010;-96
2023/01/28 02:30:18;;;;;;;4.78;2.95;;;;;;;;;;6248449;23;20008;-96
2023/01/28 02:33:23;;;;;;;8.05;3.10;;;;;;;;;;6224010;23;20072;-96
2023/01/28 02:35:52;;;;;;;4.30;2.78;;;;;;;;;;6187945;23;20088;-96
2023/01/28 02:38:33;;;;;;;2.90;2.50;;;;;;;;;;6162731;23;20005;-96
2023/01/28 02:41:09;;;;;;;7.57;2.80;;;;;;;;;;6212187;23;20000;-96
2023/01/28 02:43:37;;;;;;;4.15;2.47;;;;;;;;;;6249847;22;20095;-96
2023/01/28 02:48:57;;;;;;;5.13;3.08;;;;;;;;;;6249398;23;20016;-96
2023/01/28 02:51:32;;;;;;;3.15;2.50;;;;;;;;;;6224514;23;20104;-96
2023/01/28 02:54:18;;;;;;;3.88;2.67;;;;;;;;;;6248665;23;20368;-96
2023/01/28 02:56:44;;;;;;;;;;;;;;;;;;6218732;23;20004;-96
2023/01/28 02:59:35;;;;;;;4.13;2.75;;;;;;;;;;6249060;23;19975;-96
2023/01/28 03:02:05;;;;;;;6.10;2.63;;;;;;;;;;6250198;23;20004;-96
2023/01/28 03:04:37;;;;;;;6.00;2.72;;;;;;;;;;6225746;23;20433;-96
2023/01/28 03:07:05;;;;;;;4.78;2.70;;;;;;;;;;6251188;23;20012;-96
2023/01/28 03:09:31;;;;;;;6.88;2.38;;;;;;;;;;6250568;23;20008;-96
2023/01/28 03:37:41;;;;;;;7.95;3.60;;;;;;;;;;6251839;23;20064;-96
2023/01/28 03:40:07;;;;;;;6.97;3.00;;;;;;;;;;6225177;23;20016;-96
2023/01/28 03:42:33;;;;;;;5.95;2.97;;;;;;;;;;6252309;22;20012;-96
2023/01/28 03:45:02;;;;;;;7.40;3.72;;;;;;;;;;6225268;23;20012;-96
2023/01/28 03:47:33;;;;;;;6.68;3.53;;;;;;;;;;6225195;23;20023;-96
2023/01/28 03:49:59;;;;;;;7.30;3.03;;;;;;;;;;6225161;23;20014;-96
2023/01/28 03:52:27;;;;;;;9.75;3.55;;;;;;;;;;6200710;23;20012;-96
2023/01/28 03:54:53;;;;;;;10.27;3.45;;;;;;;;;;6225997;23;20009;-96
2023/01/28 03:57:20;;;;;;;7.63;3.17;;;;;;;;;;6200433;23;20015;-96
2023/01/28 03:59:48;;;;;;;4.80;3.08;;;;;;;;;;6224827;23;20483;-96
2023/01/28 04:02:15;;;;;;;4.35;2.70;;;;;;;;;;6224838;23;20004;-96
2023/01/28 04:04:41;;;;;;;7.18;3.10;;;;;;;;;;6224853;23;20004;-96
2023/01/28 04:07:09;;;;;;;10.75;2.45;;;;;;;;;;6199920;23;20015;-96
2023/01/28 04:09:36;;;;;;;5.43;3.03;;;;;;;;;;6225064;23;20004;-96
2023/01/28 04:12:02;;;;;;;5.35;3.20;;;;;;;;;;6224588;23;20054;-96
2023/01/28 04:14:29;;;;;;;4.93;2.58;;;;;;;;;;6225075;23;20000;-96
2023/01/28 04:16:55;;;;;;;6.75;3.20;;;;;;;;;;6199839;23;20011;-96
2023/01/28 04:19:21;;;;;;;11.23;3.00;;;;;;;;;;6224488;23;20138;-96
2023/01/28 04:21:48;;;;;;;8.23;2.97;;;;;;;;;;6224588;23;20008;-96
2023/01/28 04:24:14;;;;;;;4.15;2.83;;;;;;;;;;6200472;23;20016;-96
2023/01/28 04:26:41;;;;;;;8.38;3.08;;;;;;;;;;6225118;23;20436;-96
2023/01/28 04:29:07;;;;;;;8.73;3.22;;;;;;;;;;6224411;23;20004;-96
2023/01/28 04:31:34;;;;;;;8.73;2.45;;;;;;;;;;6199845;23;20008;-96
2023/01/28 04:34:00;;;;;;;8.90;2.88;;;;;;;;;;6223775;23;20004;-96
2023/01/28 04:36:26;;;;;;;8.15;3.55;;;;;;;;;;6200233;23;20016;-96
2023/01/28 04:38:52;;;;;;;8.80;3.40;;;;;;;;;;6200488;23;20011;-96
2023/01/28 04:41:19;;;;;;;5.13;2.70;;;;;;;;;;6224421;23;20039;-96
2023/01/28 04:43:45;;;;;;;5.35;3.15;;;;;;;;;;6202116;22;20016;-96
2023/01/28 04:46:11;;;;;;;6.43;3.20;;;;;;;;;;6225554;23;20008;-96
2023/01/28 04:48:37;;;;;;;4.97;2.80;;;;;;;;;;6225208;23;20341;-96
2023/01/28 04:51:04;;;;;;;4.88;3.03;;;;;;;;;;6251845;23;20372;-96
2023/01/28 04:53:30;;;;;;;5.75;3.10;;;;;;;;;;6255318;23;20004;-96
2023/01/28 04:55:56;;;;;;;7.32;3.17;;;;;;;;;;6233495;23;20008;-96
2023/01/28 04:58:23;;;;;;;10.43;3.67;;;;;;;;;;6236499;23;20012;-96
2023/01/28 05:00:56;;;;;;;7.03;3.78;;;;;;;;;;6240038;23;20020;-96
2023/01/28 05:03:22;;;;;;;5.50;3.17;;;;;;;;;;6274789;22;20008;-96
2023/01/28 05:05:48;;;;;;;6.18;3.38;;;;;;;;;;6249170;22;19993;-96
2023/01/28 05:08:14;;;;;;;6.78;3.20;;;;;;;;;;6249825;22;19995;-96
2023/01/28 05:10:40;;;;;;;5.93;2.88;;;;;;;;;;6273957;22;20015;-96
2023/01/28 05:13:09;;;;;;;7.00;3.25;;;;;;;;;;6274674;22;19996;-96
2023/01/28 05:15:41;;;;;;;6.25;4.05;;;;;;;;;;6245916;23;20023;-96
2023/01/28 05:18:07;;;;;;;10.65;3.15;;;;;;;;;;6240525;23;20119;-96
2023/01/28 05:20:33;;;;;;;8.07;3.60;;;;;;;;;;6230530;23;20009;-96
2023/01/28 05:22:59;;;;;;;6.00;3.28;;;;;;;;;;6231881;23;20060;-96
2023/01/28 05:25:26;;;;;;;7.38;3.47;;;;;;;;;;6228585;23;20023;-96
2023/01/28 05:27:52;;;;;;;6.95;3.70;;;;;;;;;;6226859;23;20416;-96
2023/01/28 05:30:19;;;;;;;7.95;3.75;;;;;;;;;;6225956;23;20102;-96
2023/01/28 05:32:45;;;;;;;7.18;3.30;;;;;;;;;;6250080;23;20000;-96
2023/01/28 05:35:11;;;;;;;6.38;3.75;;;;;;;;;;6250214;23;20030;-95
2023/01/28 05:37:37;;;;;;;5.30;3.42;;;;;;;;;;6225138;23;20058;-96
2023/01/28 05:40:04;;;;;;;5.97;3.53;;;;;;;;;;6225188;23;20012;-96
2023/01/28 05:42:30;;;;;;;9.43;4.05;;;;;;;;;;6224484;23;20019;-96
2023/01/28 05:45:03;;;;;;;6.07;3.83;;;;;;;;;;6225096;22;20047;-96
2023/01/28 05:47:29;;;;;;;8.50;3.63;;;;;;;;;;6202249;23;20009;-96
2023/01/28 05:49:55;;;;;;;8.15;4.32;;;;;;;;;;6223601;23;20066;-96
2023/01/28 05:52:21;;;;;;;11.23;4.18;;;;;;;;;;6223237;23;20479;-96
2023/01/28 05:54:47;;;;;;;7.20;3.92;;;;;;;;;;6224149;23;20373;-96
2023/01/28 05:57:13;;;;;;;6.75;3.58;;;;;;;;;;6223366;23;20035;-96
2023/01/28 05:59:39;;;;;;;6.85;4.43;;;;;;;;;;6223915;23;20437;-96
2023/01/28 06:02:06;;;;;;;6.15;3.65;;;;;;;;;;6223688;23;20004;-96
2023/01/28 06:04:32;;;;;;;9.57;4.95;;;;;;;;;;6223751;23;20087;-96
2023/01/28 06:06:58;;;;;;;6.32;3.95;;;;;;;;;;6223305;23;20012;-96
2023/01/28 06:09:24;;;;;;;8.00;4.07;;;;;;;;;;6223489;23;20436;-96
2023/01/28 06:11:50;;;;;;;8.13;4.65;;;;;;;;;;6248751;23;20001;-96
2023/01/28 06:14:16;;;;;;;6.03;3.95;;;;;;;;;;6225005;23;20004;-96
2023/01/28 06:16:43;;;;;;;9.18;3.80;;;;;;;;;;6249391;23;20009;-96
2023/01/28 06:19:09;;;;;;;12.32;4.15;;;;;;;;;;6224324;23;20016;-96
2023/01/28 06:21:35;;;;;;;9.70;4.63;;;;;;;;;;6222917;23;20474;-96
2023/01/28 06:24:01;;;;;;;7.75;4.18;;;;;;;;;;6223942;23;20039;-96
2023/01/28 06:26:27;;;;;;;6.68;4.53;;;;;;;;;;6223011;23;20008;-96
2023/01/28 06:28:56;;;;;;;7.68;4.28;;;;;;;;;;6223710;23;20023;-96
2023/01/28 06:31:24;;;;;;;8.35;4.95;;;;;;;;;;6225888;23;20010;-96
2023/01/28 06:33:50;;;;;;;10.20;4.60;;;;;;;;;;6224239;23;20428;-96
2023/01/28 06:36:16;;;;;;;14.00;4.47;;;;;;;;;;6224035;23;20073;-96
2023/01/28 06:38:42;;;;;;;8.40;4.45;;;;;;;;;;6224520;23;20012;-96
2023/01/28 06:41:08;;;;;;;7.30;4.43;;;;;;;;;;6224630;23;20008;-96
2023/01/28 06:43:47;;;;;;;8.30;4.15;;;;;;;;;;6226418;22;20027;-96
2023/01/28 06:46:13;;;;;;;9.05;4.47;;;;;;;;;;6201315;23;20012;-96
2023/01/28 06:48:39;;;;;;;8.70;4.97;;;;;;;;;;6199323;23;20012;-96
2023/01/28 06:51:05;;;;;;;7.95;5.13;;;;;;;;;;6225078;23;20008;-96
2023/01/28 06:53:31;;;;;;;10.50;5.55;;;;;;;;;;6222985;23;20005;-96
2023/01/28 06:55:58;;;;;;;9.38;4.85;;;;;;;;;;6198587;23;20008;-96
2023/01/28 06:58:24;;;;;;;9.52;5.28;;;;;;;;;;6199038;23;20004;-96
2023/01/28 07:00:50;;;;;;;10.30;5.68;;;;;;;;;;6199518;23;20087;-96
2023/01/28 07:03:16;;;;;;;9.55;5.60;;;;;;;;;;6198300;23;20015;-96
2023/01/28 07:05:42;;;;;;;9.88;5.88;;;;;;;;;;6222589;23;20325;-96
2023/01/28 07:08:08;;;;;;;11.35;5.10;;;;;;;;;;6222520;23;20007;-96
2023/01/28 07:10:34;;;;;;;10.63;5.50;;;;;;;;;;6197513;23;20008;-96
2023/01/28 07:13:00;;;;;;;9.65;5.03;;;;;;;;;;6197634;23;20008;-96
2023/01/28 07:15:27;;;;;;;8.30;5.13;;;;;;;;;;6197996;23;20042;-96
2023/01/28 07:17:53;;;;;;;8.35;4.88;;;;;;;;;;6222897;23;20004;-96
2023/01/28 07:20:19;;;;;;;7.63;4.93;;;;;;;;;;6197830;23;20008;-96
2023/01/28 07:22:45;;;;;;;9.20;5.70;;;;;;;;;;6198015;23;20451;-96
2023/01/28 07:25:14;;;;;;;9.90;5.75;;;;;;;;;;6222894;23;20008;-96
2023/01/28 07:27:45;;;;;;;9.38;5.13;;;;;;;;;;6223330;23;20015;-96
2023/01/28 07:30:12;;;;;;;8.63;5.75;;;;;;;;;;6223926;23;20004;-96
2023/01/28 07:32:38;;;;;;;15.63;6.47;;;;;;;;;;6222349;23;20004;-96
2023/01/28 07:35:05;;;;;;;11.23;5.72;;;;;;;;;;6198520;23;20004;-96
2023/01/28 07:37:31;;;;;;;9.38;5.57;;;;;;;;;;6222974;23;20424;-96
2023/01/28 07:39:57;;;;;;;11.63;5.53;;;;;;;;;;6197739;23;20014;-96
2023/01/28 07:42:23;;;;;;;13.10;6.13;;;;;;;;;;6223145;23;20012;-96
2023/01/28 07:44:49;;;;;;;14.27;7.00;;;;;;;;;;6224422;22;20016;-96
2023/01/28 07:47:16;;;;;;;11.50;6.40;;;;;;;;;;6223259;23;20057;-95
2023/01/28 07:49:42;;;;;;;12.88;5.95;;;;;;;;;;6224961;23;20008;-95
2023/01/28 07:52:08;;;;;;;13.90;6.82;;;;;;;;;;6224842;23;20031;-96
2023/01/28 07:54:34;;;;;;;14.45;6.22;;;;;;;;;;6251369;23;20058;-96
2023/01/28 07:57:00;;;;;;;12.02;6.22;;;;;;;;;;6226141;23;20008;-96
2023/01/28 07:59:27;;;;;;;10.52;5.57;;;;;;;;;;6226776;23;20432;-96
2023/01/28 08:01:53;;;;;;;11.20;5.85;;;;;;;;;;6227533;23;20008;-96
2023/01/28 08:04:19;;;;;;;10.50;5.78;;;;;;;;;;6227140;23;20004;-96
2023/01/28 08:06:45;;;;;;;10.52;5.45;;;;;;;;;;6252866;23;20008;-96
2023/01/28 08:09:11;;;;;;;16.17;6.53;;;;;;;;;;6256317;23;20004;-96
2023/01/28 08:11:40;;;;;;;13.07;5.93;;;;;;;;;;6237870;22;20004;-96
2023/01/28 08:14:06;;;;;;;11.18;5.32;;;;;;;;;;6275407;22;20018;-96
2023/01/28 08:16:32;;;;;;;10.98;5.80;;;;;;;;;;6250687;22;20005;-96
2023/01/28 08:18:58;;;;;;;9.65;4.80;;;;;;;;;;6250335;22;20056;-96
2023/01/28 08:21:27;;;;;;;11.80;5.35;;;;;;;;;;6250432;22;20015;-96
2023/01/28 08:23:54;;;;;;;9.68;5.57;;;;;;;;;;6250278;22;19996;-96
2023/01/28 08:26:20;;;;;;;13.00;5.72;;;;;;;;;;6244830;23;20008;-96
2023/01/28 08:28:48;;;;;;;11.70;4.60;;;;;;;;;;6242455;23;20004;-96
2023/01/28 08:31:14;;;;;;;9.57;5.22;;;;;;;;;;6255416;23;20066;-96
2023/01/28 08:33:41;;;;;;;10.13;5.10;;;;;;;;;;6251857;23;20007;-95
2023/01/28 08:36:07;;;;;;;9.50;5.05;;;;;;;;;;6226181;23;20027;-96
2023/01/28 08:38:33;;;;;;;11.80;5.30;;;;;;;;;;6225213;23;20012;-96
2023/01/28 08:40:59;;;;;;;12.20;5.97;;;;;;;;;;6225247;23;20019;-96
2023/01/28 08:43:25;;;;;;;12.25;4.68;;;;;;;;;;6225330;23;20381;-96
2023/01/28 08:45:51;;;;;;;9.80;5.82;;;;;;;;;;6250318;22;20020;-96
2023/01/28 08:48:20;;;;;;;8.50;4.85;;;;;;;;;;6224975;23;20027;-96
2023/01/28 08:50:46;;;;;;;14.98;5.20;;;;;;;;;;6250267;23;20008;-96
2023/01/28 08:53:14;;;;;;;11.07;6.00;;;;;;;;;;6250415;23;20027;-95
2023/01/28 08:55:40;;;;;;;8.35;5.35;;;;;;;;;;6249713;23;20004;-96
2023/01/28 08:58:09;;;;;;;9.77;5.20;;;;;;;;;;6225059;23;20420;-96
2023/01/28 09:00:37;;;;;;;13.90;6.18;;;;;;;;;;6249436;23;20484;-96
2023/01/28 09:03:04;;;;;;;9.32;4.60;;;;;;;;;;6224582;23;20015;-96
2023/01/28 09:05:31;;;;;;;13.93;5.85;;;;;;;;;;6223949;23;20432;-96
2023/01/28 09:08:01;;;;;;;8.18;4.63;;;;;;;;;;6224589;23;20008;-96
2023/01/28 09:10:27;;;;;;;10.88;5.35;;;;;;;;;;6249629;23;20042;-96
2023/01/28 09:12:53;;;;;;;8.60;4.13;;;;;;;;;;6249564;23;20004;-96
2023/01/28 09:15:19;;;;;;;18.55;5.72;;;;;;;;;;6249354;23;20028;-96
2023/01/28 09:17:45;;;;;;;9.82;5.93;;;;;;;;;;6223725;23;20008;-96
2023/01/28 09:20:11;;;;;;;12.48;5.18;;;;;;;;;;6223793;23;20046;-96
2023/01/28 09:22:38;;;;;;;10.98;5.70;;;;;;;;;;6223838;23;20441;-96
2023/01/28 09:25:04;;;;;;;13.10;5.68;;;;;;;;;;6223182;23;20420;-95
2023/01/28 09:27:30;;;;;;;10.40;5.55;;;;;;;;;;6224752;23;20012;-96
2023/01/28 09:29:56;;;;;;;13.32;5.80;;;;;;;;;;6250052;23;20015;-95
2023/01/28 09:32:23;;;;;;;6.25;3.80;;;;;;;;;;6226666;23;20302;-96
2023/01/28 09:34:49;;;;;;;11.68;5.38;;;;;;;;;;6226425;23;20004;-95
2023/01/28 09:37:17;;;;;;;8.60;4.80;;;;;;;;;;6225380;23;20008;-96
2023/01/28 09:39:43;;;;;;;9.05;4.38;;;;;;;;;;6250220;23;20447;-96
2023/01/28 09:42:12;;;;;;;7.50;4.35;;;;;;;;;;6225106;23;20436;-96
2023/01/28 09:44:41;;;;;;;6.82;4.53;;;;;;;;;;6226209;22;20016;-96
2023/01/28 09:47:12;;;;;;;11.52;4.40;;;;;;;;;;6250171;23;20015;-96
2023/01/28 09:49:47;;;;;;;10.38;4.72;;;;;;;;;;6249156;23;20008;-96
2023/01/28 09:52:17;;;;;;;7.25;4.75;;;;;;;;;;6249245;23;20015;-95
2023/01/28 09:55:10;;;;;;;6.38;3.90;;;;;;;;;;6249161;23;20004;-96
2023/01/28 09:57:45;;;;;;;8.85;4.18;;;;;;;;;;6245969;23;20032;-96
2023/01/28 10:00:14;;;;;;;8.13;4.30;;;;;;;;;;6249026;23;20008;-96
2023/01/28 10:02:44;;;;;;;7.22;4.18;;;;;;;;;;6248969;23;20028;-96
2023/01/28 10:05:16;;;;;;;9.73;4.55;;;;;;;;;;6248869;23;20027;-96
2023/01/28 10:07:50;;;;;;;7.88;4.57;;;;;;;;;;6255990;23;20019;-96
2023/01/28 10:10:29;;;;;;;7.53;4.30;;;;;;;;;;6248299;23;20024;-96
2023/01/28 10:13:12;;;;;;;14.32;4.97;;;;;;;;;;6248443;23;20011;-96
2023/01/28 10:15:57;;;;;;;9.50;4.88;;;;;;;;;;6249151;23;20024;-96
2023/01/28 10:18:46;;;;;;;7.68;4.45;;;;;;;;;;6248378;23;20014;-96
2023/01/28 10:21:16;;;;;;;7.15;4.28;;;;;;;;;;6240677;23;20011;-96
2023/01/28 10:23:48;;;;;;;10.38;4.78;;;;;;;;;;6248990;23;20015;-96
2023/01/28 10:26:20;;;;;;;6.40;3.80;;;;;;;;;;6248983;23;20082;-96
2023/01/28 10:28:53;;;;;;;10.60;4.93;;;;;;;;;;6249716;23;20011;-96
2023/01/28 10:31:19;;;;;;;9.02;4.30;;;;;;;;;;6249049;23;20010;-95
2023/01/28 10:33:46;;;;;;;9.50;4.55;;;;;;;;;;6249504;23;20004;-96
2023/01/28 10:36:12;;;;;;;8.80;4.80;;;;;;;;;;6249800;23;20091;-95
2023/01/28 10:38:38;;;;;;;9.27;4.28;;;;;;;;;;6249298;23;20008;-96
2023/01/28 10:41:05;;;;;;;12.52;4.65;;;;;;;;;;6223409;23;20009;-95
2023/01/28 10:43:33;;;;;;;5.00;3.70;;;;;;;;;;6223659;23;20482;-95
2023/01/28 10:46:20;;;;;;;9.07;3.67;;;;;;;;;;6248966;22;20058;-96
2023/01/28 10:49:06;;;;;;;8.82;3.97;;;;;;;;;;6223533;23;20004;-96
2023/01/28 10:51:32;;;;;;;;;;;;;;;;;;6248681;23;20012;-96
2023/01/28 10:53:58;;;;;;;8.27;3.92;;;;;;;;;;6248471;23;19906;-96
2023/01/28 10:56:27;;;;;;;7.22;3.28;;;;;;;;;;6223252;23;20425;-96
2023/01/28 10:58:59;;;;;;;10.57;4.43;;;;;;;;;;6248525;23;20000;-95
2023/01/28 11:01:26;;;;;;;5.20;2.80;;;;;;;;;;6248643;23;20000;-96
2023/01/28 11:03:56;;;;;;;6.28;4.43;;;;;;;;;;6248306;23;20324;-96
2023/01/28 11:06:27;;;;;;;7.15;3.40;;;;;;;;;;6223910;23;20413;-96
2023/01/28 11:08:53;;;;;;;6.43;4.50;;;;;;;;;;6249083;23;20004;-96
2023/01/28 11:11:24;;;;;;;8.85;4.22;;;;;;;;;;6223761;23;20012;-96
2023/01/28 11:13:52;;;;;;;7.70;3.95;;;;;;;;;;6250309;23;20031;-96
2023/01/28 11:16:19;;;;;;;7.20;3.78;;;;;;;;;;6225911;23;20467;-96
2023/01/28 11:18:51;;;;;;;9.68;4.35;;;;;;;;;;6226097;23;20511;-96
2023/01/28 11:21:27;;;;;;;6.80;4.53;;;;;;;;;;6252649;23;20087;-96
2023/01/28 11:23:58;;;;;;;7.72;4.70;;;;;;;;;;6255783;23;20018;-96
2023/01/28 11:26:26;;;;;;;13.00;5.28;;;;;;;;;;6259929;23;20047;-96
2023/01/28 11:28:52;;;;;;;5.75;3.10;;;;;;;;;;6270622;22;19988;-96
2023/01/28 11:31:19;;;;;;;8.60;4.85;;;;;;;;;;6250847;22;20000;-96
2023/01/28 11:33:46;;;;;;;7.38;4.15;;;;;;;;;;6275866;22;20083;-96
2023/01/28 11:36:12;;;;;;;8.40;5.10;;;;;;;;;;6275980;22;20015;-95
2023/01/28 11:38:46;;;;;;;10.85;5.28;;;;;;;;;;6273023;23;20029;-96
2023/01/28 11:41:14;;;;;;;10.90;5.15;;;;;;;;;;6271150;23;19988;-96
2023/01/28 11:43:40;;;;;;;10.70;4.63;;;;;;;;;;6230017;23;20006;-96
2023/01/28 11:46:12;;;;;;;8.15;4.93;;;;;;;;;;6228727;22;20016;-96
2023/01/28 11:48:41;;;;;;;11.90;5.10;;;;;;;;;;6252024;23;20007;-96
2023/01/28 11:51:16;;;;;;;12.10;5.07;;;;;;;;;;6251893;23;20344;-96
2023/01/28 11:54:02;;;;;;;7.80;4.47;;;;;;;;;;6226664;23;20010;-96
2023/01/28 11:56:47;;;;;;;9.25;4.90;;;;;;;;;;6240951;23;20004;-95
2023/01/28 11:59:23;;;;;;;13.48;6.43;;;;;;;;;;6251105;23;20028;-96
2023/01/28 12:01:57;;;;;;;12.43;4.45;;;;;;;;;;6250675;23;20001;-96
2023/01/28 12:04:42;;;;;;;10.10;5.63;;;;;;;;;;6250009;23;20008;-96
2023/01/28 12:07:27;;;;;;;7.07;4.28;;;;;;;;;;6249995;23;20030;-96
2023/01/28 12:10:02;;;;;;;10.68;4.80;;;;;;;;;;6250672;23;20329;-96
2023/01/28 12:12:46;;;;;;;8.27;5.25;;;;;;;;;;6249633;23;20001;-96
2023/01/28 12:15:31;;;;;;;7.18;4.40;;;;;;;;;;6249826;23;20092;-96
2023/01/28 12:18:04;;;;;;;12.15;5.22;;;;;;;;;;6249776;23;20005;-96
2023/01/28 12:20:31;;;;;;;11.02;5.53;;;;;;;;;;6250177;23;20008;-96
2023/01/28 12:22:57;;;;;;;13.73;4.80;;;;;;;;;;6249874;23;20008;-96
2023/01/28 12:25:29;;;;;;;8.98;4.70;;;;;;;;;;6249728;23;20081;-96
2023/01/28 12:28:00;;;;;;;8.52;4.82;;;;;;;;;;6249974;23;20015;-96
2023/01/28 12:30:45;;;;;;;10.70;3.55;;;;;;;;;;6250102;23;20011;-96
2023/01/28 12:33:27;;;;;;;8.85;4.70;;;;;;;;;;6250536;23;20001;-96
2023/01/28 12:36:05;;;;;;;7.53;3.42;;;;;;;;;;6249165;23;20015;-96
2023/01/28 12:38:50;;;;;;;9.73;4.00;;;;;;;;;;6249615;23;20010;-96
2023/01/28 12:41:18;;;;;;;7.40;4.03;;;;;;;;;;6249834;23;20344;-96
2023/01/28 12:43:53;;;;;;;11.98;5.40;;;;;;;;;;6224325;23;20094;-95
2023/01/28 12:46:32;;;;;;;9.88;4.72;;;;;;;;;;6249468;22;20016;-96
2023/01/28 12:49:16;;;;;;;7.05;4.63;;;;;;;;;;6250588;23;20004;-95
2023/01/28 12:51:47;;;;;;;12.70;4.85;;;;;;;;;;6249516;23;20012;-96
2023/01/28 12:54:21;;;;;;;8.02;4.97;;;;;;;;;;6249978;23;20486;-96
2023/01/28 12:56:50;;;;;;;10.25;5.13;;;;;;;;;;6249557;23;20004;-96
2023/01/28 12:59:20;;;;;;;10.85;4.90;;;;;;;;;;6249551;23;20497;-96
2023/01/28 13:01:55;;;;;;;10.40;4.93;;;;;;;;;;6249793;23;20429;-95
2023/01/28 13:04:31;;;;;;;8.73;4.82;;;;;;;;;;6250142;23;20004;-96
2023/01/28 13:07:21;;;;;;;12.63;5.03;;;;;;;;;;6249473;23;20011;-96
2023/01/28 13:09:51;;;;;;;9.48;5.45;;;;;;;;;;6241371;23;20040;-96
2023/01/28 13:12:18;;;;;;;9.25;4.38;;;;;;;;;;6249207;23;20000;-96
2023/01/28 13:14:44;;;;;;;14.00;4.72;;;;;;;;;;6223753;23;20348;-96
2023/01/28 13:17:28;;;;;;;8.10;5.05;;;;;;;;;;6224088;23;20008;-96
2023/01/28 13:19:54;;;;;;;7.95;4.45;;;;;;;;;;6249676;23;20413;-96
2023/01/28 13:22:29;;;;;;;8.70;4.90;;;;;;;;;;6224076;23;20008;-96
2023/01/28 13:24:55;;;;;;;9.55;5.50;;;;;;;;;;6224131;23;20016;-95
2023/01/28 13:27:23;;;;;;;8.23;4.53;;;;;;;;;;6249877;23;20318;-95
2023/01/28 13:29:59;;;;;;;8.07;4.47;;;;;;;;;;6249531;23;20004;-95
2023/01/28 13:32:31;;;;;;;12.18;4.93;;;;;;;;;;6251043;23;20000;-96
2023/01/28 13:35:00;;;;;;;14.93;5.60;;;;;;;;;;6249670;23;20004;-95
2023/01/28 13:37:35;;;;;;;12.25;6.03;;;;;;;;;;6249435;23;20006;-96
2023/01/28 13:40:01;;;;;;;15.00;5.53;;;;;;;;;;6249076;23;20371;-96
2023/01/28 13:42:31;;;;;;;10.40;5.05;;;;;;;;;;6249833;23;20008;-96
2023/01/28 13:45:13;;;;;;;8.88;5.00;;;;;;;;;;6248559;22;20016;-96
2023/01/28 13:47:39;;;;;;;12.05;4.90;;;;;;;;;;6249087;23;20004;-96
2023/01/28 13:50:12;;;;;;;11.82;5.85;;;;;;;;;;6223712;23;20011;-95
2023/01/28 13:52:55;;;;;;;11.52;5.57;;;;;;;;;;6249200;23;20005;-96
2023/01/28 13:55:22;;;;;;;12.23;5.43;;;;;;;;;;6248741;23;20019;-96
2023/01/28 13:58:07;;;;;;;12.43;5.15;;;;;;;;;;6223682;23;20051;-96
2023/01/28 14:00:39;;;;;;;10.07;4.93;;;;;;;;;;6224633;23;20058;-96
2023/01/28 14:03:24;;;;;;;9.93;4.40;;;;;;;;;;6249230;23;20059;-96
2023/01/28 14:06:05;;;;;;;25.95;4.00;;;;;;;;;;6248318;23;20011;-96
2023/01/28 14:08:50;;;;;;;11.65;4.05;;;;;;;;;;6249363;23;20004;-96
2023/01/28 14:11:31;;;;;;;12.95;4.93;;;;;;;;;;6248752;23;20007;-96
2023/01/28 14:14:26;;;;;;;10.88;4.18;;;;;;;;;;6248359;23;20313;-96
2023/01/28 14:17:03;;;;;;;12.52;4.88;;;;;;;;;;6248997;23;20031;-96
2023/01/28 14:19:32;;;;;;;5.20;3.08;;;;;;;;;;6248733;23;20314;-95
2023/01/28 14:21:58;;;;;;;11.02;3.50;;;;;;;;;;6248411;23;20344;-96
2023/01/28 14:24:24;;;;;;;2.90;1.65;;;;;;;;;;6223470;23;20011;-95
2023/01/28 14:26:56;;;;;;;8.80;4.20;;;;;;;;;;6249160;23;20004;-96
2023/01/28 14:29:25;;;;;;;6.78;3.70;;;;;;;;;;6249055;23;20339;-96
2023/01/28 14:31:52;;;;;;;7.13;3.53;;;;;;;;;;6250329;23;20053;-96
2023/01/28 14:34:28;;;;;;;7.82;4.43;;;;;;;;;;6250547;23;20055;-95
2023/01/28 14:36:58;;;;;;;15.38;5.43;;;;;;;;;;6249385;23;20031;-96
2023/01/28 14:39:29;;;;;;;11.95;4.35;;;;;;;;;;6250890;23;20008;-96
2023/01/28 14:41:58;;;;;;;11.15;4.90;;;;;;;;;;6227630;23;20046;-95
2023/01/28 14:44:27;;;;;;;10.48;5.00;;;;;;;;;;6257266;22;20004;-96
2023/01/28 14:47:12;;;;;;;10.93;4.55;;;;;;;;;;6208926;22;20013;-96
2023/01/28 14:49:55;;;;;;;15.00;5.18;;;;;;;;;;6218716;22;20001;-96
2023/01/28 14:52:42;;;;;;;13.43;4.50;;;;;;;;;;6217962;22;20056;-95
2023/01/28 14:55:26;;;;;;;9.60;4.10;;;;;;;;;;6218581;22;19993;-93
2023/01/28 14:58:00;;;;;;;9.57;4.45;;;;;;;;;;6211587;23;20005;-96
2023/01/28 15:00:34;;;;;;;8.80;3.90;;;;;;;;;;6208659;23;20001;-96
2023/01/28 15:03:01;;;;;;;8.25;3.70;;;;;;;;;;6197372;23;20001;-96
2023/01/28 15:05:28;;;;;;;10.13;3.72;;;;;;;;;;6196422;23;20009;-96
2023/01/28 15:07:55;;;;;;;10.02;4.75;;;;;;;;;;6196279;23;20008;-96
2023/01/28 15:10:28;;;;;;;12.68;4.68;;;;;;;;;;6195362;23;20009;-96
2023/01/28 15:12:56;;;;;;;12.88;4.57;;;;;;;;;;6196064;23;20087;-96
2023/01/28 15:15:25;;;;;;;11.18;4.75;;;;;;;;;;6195660;23;20012;-96
2023/01/28 15:17:52;;;;;;;9.43;5.10;;;;;;;;;;6195116;23;20035;-96
2023/01/28 15:20:18;;;;;;;8.55;4.60;;;;;;;;;;6194737;23;20008;-96
2023/01/28 15:22:45;;;;;;;10.25;4.60;;;;;;;;;;6195870;23;20012;-96